createdAt,value
2022-12-31T00:01:25.825Z,100.00
2022-12-31T00:03:52.590Z,100.00
2022-12-31T00:06:29.166Z,100.00
2022-12-31T00:08:57.567Z,100.00
2022-12-31T00:11:25.762Z,100.00
2022-12-31T00:13:53.029Z,100.00
2022-12-31T00:16:26.213Z,100.00
2022-12-31T00:18:55.316Z,100.00
2022-12-31T00:21:22.655Z,100.00
2022-12-31T00:23:49.206Z,100.00
2022-12-31T00:26:17.999Z,100.00
2022-12-31T00:28:45.227Z,100.00
2022-12-31T00:31:15.494Z,100.00
2022-12-31T00:33:42.841Z,100.00
2022-12-31T00:36:20.299Z,100.00
2022-12-31T00:38:49.305Z,100.00
2022-12-31T00:41:16.946Z,100.00
2022-12-31T00:43:43.621Z,100.00
2022-12-31T00:46:11.314Z,100.00
2022-12-31T00:48:38.395Z,100.00
2022-12-31T00:51:06.997Z,100.00
2022-12-31T00:53:33.956Z,100.00
2022-12-31T00:56:22.449Z,100.00
2022-12-31T00:58:49.505Z,100.00
2022-12-31T01:01:28.724Z,100.00
2022-12-31T01:03:58.961Z,100.00
2022-12-31T01:06:25.926Z,100.00
2022-12-31T01:08:53.233Z,100.00
2022-12-31T01:11:22.321Z,100.00
2022-12-31T01:13:58.210Z,100.00
2022-12-31T01:16:30.768Z,100.00
2022-12-31T01:18:59.580Z,100.00
2022-12-31T01:21:26.172Z,100.00
2022-12-31T01:23:52.629Z,100.00
2022-12-31T01:26:19.676Z,100.00
2022-12-31T01:28:46.455Z,100.00
2022-12-31T01:31:15.962Z,100.00
2022-12-31T01:33:43.331Z,100.00
2022-12-31T01:36:25.592Z,100.00
2022-12-31T01:38:56.716Z,100.00
2022-12-31T01:41:26.813Z,100.00
2022-12-31T01:44:24.878Z,100.00
2022-12-31T01:46:58.256Z,100.00
2022-12-31T01:49:42.985Z,100.00
2022-12-31T01:52:18.461Z,100.00
2022-12-31T01:54:49.588Z,100.00
2022-12-31T01:57:16.855Z,100.00
2022-12-31T01:59:44.802Z,100.00
2022-12-31T02:02:12.775Z,100.00
2022-12-31T02:04:39.277Z,100.00
2022-12-31T02:07:08.016Z,100.00
2022-12-31T02:09:38.448Z,100.00
2022-12-31T02:12:06.043Z,100.00
2022-12-31T02:14:37.119Z,100.00
2022-12-31T02:17:28.259Z,100.00
2022-12-31T02:20:18.609Z,100.00
2022-12-31T02:23:01.487Z,100.00
2022-12-31T02:25:42.896Z,100.00
2022-12-31T02:28:35.883Z,100.00
2022-12-31T02:31:33.075Z,100.00
2022-12-31T02:34:11.622Z,100.00
2022-12-31T02:36:43.049Z,100.00
2022-12-31T02:39:10.567Z,100.00
2022-12-31T02:41:52.310Z,100.00
2022-12-31T02:44:33.645Z,100.00
2022-12-31T02:47:09.109Z,100.00
2022-12-31T02:49:42.505Z,100.00
2022-12-31T02:52:39.708Z,100.00
2022-12-31T02:55:48.500Z,100.00
2022-12-31T02:58:21.326Z,100.00
2022-12-31T03:01:13.798Z,100.00
2022-12-31T03:03:40.846Z,100.00
2022-12-31T03:06:08.889Z,100.00
2022-12-31T03:08:55.470Z,100.00
2022-12-31T03:11:40.208Z,100.00
2022-12-31T03:14:06.640Z,100.00
2022-12-31T03:16:34.269Z,100.00
2022-12-31T03:19:19.166Z,100.00
2022-12-31T03:22:04.106Z,100.00
2022-12-31T03:24:48.961Z,100.00
2022-12-31T03:27:15.340Z,100.00
2022-12-31T03:29:41.704Z,100.00
2022-12-31T03:32:08.079Z,100.00
2022-12-31T03:34:34.446Z,100.00
2022-12-31T03:37:00.828Z,100.00
2022-12-31T03:39:27.208Z,100.00
2022-12-31T03:41:53.621Z,100.00
2022-12-31T03:44:20.111Z,100.00
2022-12-31T03:46:46.484Z,100.00
2022-12-31T03:49:12.857Z,100.00
2022-12-31T03:51:39.243Z,100.00
2022-12-31T03:54:05.621Z,100.00
2022-12-31T03:56:32.029Z,100.00
2022-12-31T03:58:58.399Z,100.00
2022-12-31T04:01:25.401Z,100.00
2022-12-31T04:03:51.841Z,100.00
2022-12-31T04:06:18.233Z,100.00
2022-12-31T04:08:44.621Z,100.00
2022-12-31T04:11:13.663Z,100.00
2022-12-31T04:13:43.798Z,100.00
2022-12-31T04:16:10.367Z,100.00
2022-12-31T04:18:36.756Z,100.00
2022-12-31T04:21:04.632Z,100.00
2022-12-31T04:23:31.376Z,100.00
2022-12-31T04:25:57.749Z,100.00
2022-12-31T04:28:24.191Z,100.00
2022-12-31T04:30:50.554Z,100.00
2022-12-31T04:33:16.964Z,100.00
2022-12-31T04:35:43.947Z,100.00
2022-12-31T04:38:10.349Z,100.00
2022-12-31T04:40:56.767Z,100.00
2022-12-31T04:43:23.131Z,100.00
2022-12-31T04:45:49.490Z,100.00
2022-12-31T04:48:15.928Z,100.00
2022-12-31T04:50:42.296Z,100.00
2022-12-31T04:53:08.671Z,100.00
2022-12-31T04:55:35.018Z,100.00
2022-12-31T04:58:01.453Z,100.00
2022-12-31T05:00:27.817Z,100.00
2022-12-31T05:02:54.224Z,100.00
2022-12-31T05:05:20.638Z,100.00
2022-12-31T05:07:47.026Z,100.00
2022-12-31T05:10:13.434Z,100.00
2022-12-31T05:12:39.807Z,100.00
2022-12-31T05:15:06.924Z,100.00
2022-12-31T05:17:33.313Z,100.00
2022-12-31T05:19:59.694Z,100.00
2022-12-31T05:22:28.928Z,100.00
2022-12-31T05:24:56.267Z,100.00
2022-12-31T05:27:22.847Z,100.00
2022-12-31T05:29:49.216Z,100.00
2022-12-31T05:32:15.794Z,100.00
2022-12-31T05:34:42.199Z,100.00
2022-12-31T05:37:08.565Z,100.00
2022-12-31T05:39:35.762Z,100.00
2022-12-31T05:42:02.111Z,100.00
2022-12-31T05:44:28.501Z,100.00
2022-12-31T05:46:54.868Z,100.00
2022-12-31T05:49:21.229Z,100.00
2022-12-31T05:51:47.589Z,100.00
2022-12-31T05:54:13.973Z,100.00
2022-12-31T05:56:40.372Z,100.00
2022-12-31T05:59:06.735Z,100.00
2022-12-31T06:01:33.149Z,100.00
2022-12-31T06:04:00.344Z,100.00
2022-12-31T06:06:26.763Z,100.00
2022-12-31T06:08:53.150Z,100.00
2022-12-31T06:11:19.519Z,100.00
2022-12-31T06:13:45.889Z,100.00
2022-12-31T06:16:12.658Z,100.00
2022-12-31T06:18:39.371Z,100.00
2022-12-31T06:21:06.591Z,100.00
2022-12-31T06:23:33.035Z,100.00
2022-12-31T06:26:04.669Z,100.00
2022-12-31T06:28:31.046Z,100.00
2022-12-31T06:31:01.333Z,100.00
2022-12-31T06:33:28.207Z,100.00
2022-12-31T06:35:59.336Z,100.00
2022-12-31T06:38:27.148Z,100.00
2022-12-31T06:40:53.592Z,100.00
2022-12-31T06:43:20.519Z,100.00
2022-12-31T06:45:47.157Z,100.00
2022-12-31T06:48:13.666Z,100.00
2022-12-31T06:50:40.324Z,100.00
2022-12-31T06:53:07.619Z,100.00
2022-12-31T06:55:34.280Z,100.00
2022-12-31T06:58:01.058Z,100.00
2022-12-31T07:00:27.810Z,100.00
2022-12-31T07:03:18.725Z,100.00
2022-12-31T07:05:50.681Z,100.00
2022-12-31T07:08:21.875Z,100.00
2022-12-31T07:10:54.132Z,100.00
2022-12-31T07:13:42.575Z,100.00
2022-12-31T07:16:23.708Z,100.00
2022-12-31T07:19:05.129Z,100.00
2022-12-31T07:21:37.376Z,100.00
2022-12-31T07:24:06.341Z,100.00
2022-12-31T07:26:56.705Z,100.00
2022-12-31T07:29:52.921Z,100.00
2022-12-31T07:32:43.418Z,100.00
2022-12-31T07:35:21.819Z,100.00
2022-12-31T07:37:48.115Z,100.00
2022-12-31T07:40:39.741Z,100.00
2022-12-31T07:43:29.101Z,100.00
2022-12-31T07:46:17.457Z,100.00
2022-12-31T07:48:44.017Z,100.00
2022-12-31T07:51:11.676Z,100.00
2022-12-31T07:53:38.625Z,100.00
2022-12-31T07:56:07.052Z,100.00
2022-12-31T07:59:10.754Z,100.00
2022-12-31T08:02:13.716Z,100.00
2022-12-31T08:05:00.530Z,100.00
2022-12-31T08:07:29.868Z,100.00
2022-12-31T08:10:29.200Z,100.00
2022-12-31T08:13:02.099Z,100.00
2022-12-31T08:15:30.773Z,100.00
2022-12-31T08:17:57.681Z,100.00
2022-12-31T08:20:24.230Z,100.00
2022-12-31T08:23:02.807Z,100.00
2022-12-31T08:25:56.935Z,100.00
2022-12-31T08:28:35.552Z,100.00
2022-12-31T08:31:08.770Z,100.00
2022-12-31T08:33:44.685Z,100.00
2022-12-31T08:36:27.006Z,100.00
2022-12-31T08:39:01.249Z,100.00
2022-12-31T08:41:43.430Z,100.00
2022-12-31T08:44:37.093Z,100.00
2022-12-31T08:47:03.442Z,100.00
2022-12-31T08:49:34.171Z,100.00
2022-12-31T08:52:01.591Z,100.00
2022-12-31T08:54:28.578Z,100.00
2022-12-31T08:57:16.206Z,100.00
2022-12-31T09:00:07.137Z,100.00
2022-12-31T09:03:10.058Z,100.00
2022-12-31T09:06:06.090Z,100.00
2022-12-31T09:08:45.354Z,100.00
2022-12-31T09:11:47.947Z,100.00
2022-12-31T09:14:43.729Z,100.00
2022-12-31T09:17:15.902Z,100.00
2022-12-31T09:19:42.267Z,100.00
2022-12-31T09:22:10.513Z,100.00
2022-12-31T09:24:37.235Z,100.00
2022-12-31T09:27:12.894Z,99.81
2022-12-31T09:29:51.128Z,100.00
2022-12-31T09:32:25.566Z,100.00
2022-12-31T09:35:04.072Z,100.00
2022-12-31T09:37:51.192Z,100.00
2022-12-31T09:40:38.888Z,99.78
2022-12-31T09:43:05.183Z,100.00
2022-12-31T09:45:56.395Z,100.00
2022-12-31T09:48:41.814Z,100.00
2022-12-31T09:51:25.260Z,99.44
2022-12-31T09:54:11.033Z,99.18
2022-12-31T09:57:01.968Z,98.56
2022-12-31T09:59:38.932Z,99.17
2022-12-31T10:02:17.136Z,100.00
2022-12-31T10:04:52.939Z,100.00
2022-12-31T10:07:31.479Z,98.04
2022-12-31T10:10:20.674Z,99.41
2022-12-31T10:13:09.078Z,99.92
2022-12-31T10:15:57.602Z,99.82
2022-12-31T10:18:57.604Z,100.00
2022-12-31T10:21:42.716Z,98.03
2022-12-31T10:24:22.586Z,100.00
2022-12-31T10:27:16.417Z,99.62
2022-12-31T10:30:01.991Z,100.00
2022-12-31T10:32:43.606Z,98.97
2022-12-31T10:35:13.840Z,97.14
2022-12-31T10:38:26.575Z,96.22
2022-12-31T10:41:14.874Z,96.79
2022-12-31T10:44:09.331Z,96.94
2022-12-31T10:46:44.950Z,97.67
2022-12-31T10:50:01.803Z,99.78
2022-12-31T10:52:49.431Z,97.53
2022-12-31T10:55:43.647Z,94.52
2022-12-31T10:58:59.893Z,96.50
2022-12-31T11:02:03.378Z,96.40
2022-12-31T11:05:08.073Z,93.38
2022-12-31T11:07:59.683Z,95.76
2022-12-31T11:10:55.563Z,94.85
2022-12-31T11:13:49.028Z,95.89
2022-12-31T11:16:22.330Z,96.58
2022-12-31T11:19:02.123Z,92.98
2022-12-31T11:21:54.363Z,92.91
2022-12-31T11:24:29.488Z,92.34
2022-12-31T11:27:17.897Z,90.19
2022-12-31T11:30:23.445Z,93.39
2022-12-31T11:33:08.460Z,93.65
2022-12-31T11:35:56.900Z,92.01
2022-12-31T11:38:29.992Z,92.36
2022-12-31T11:41:21.230Z,91.21
2022-12-31T11:43:58.185Z,92.62
2022-12-31T11:46:43.353Z,92.43
2022-12-31T11:49:37.903Z,90.40
2022-12-31T11:52:15.999Z,92.05
2022-12-31T11:54:59.281Z,90.49
2022-12-31T11:57:33.471Z,90.38
2022-12-31T12:00:03.576Z,89.85
2022-12-31T12:02:34.803Z,91.21
2022-12-31T12:05:10.346Z,90.08
2022-12-31T12:07:37.582Z,91.02
2022-12-31T12:10:16.903Z,90.34
2022-12-31T12:12:43.727Z,92.31
2022-12-31T12:15:21.620Z,90.83
2022-12-31T12:17:57.664Z,90.70
2022-12-31T12:20:36.795Z,91.73
2022-12-31T12:23:14.854Z,91.89
2022-12-31T12:25:43.613Z,90.18
2022-12-31T12:28:24.166Z,91.46
2022-12-31T12:31:01.060Z,90.90
2022-12-31T12:33:30.160Z,91.50
2022-12-31T12:36:10.195Z,90.72
2022-12-31T12:38:37.504Z,90.73
2022-12-31T12:41:06.828Z,91.26
2022-12-31T12:43:36.001Z,92.46
2022-12-31T12:46:04.051Z,89.94
2022-12-31T12:48:40.653Z,91.63
2022-12-31T12:51:18.314Z,91.30
2022-12-31T12:54:02.861Z,90.06
2022-12-31T12:56:49.337Z,91.48
2022-12-31T12:59:34.661Z,90.11
2022-12-31T13:02:26.741Z,91.72
2022-12-31T13:05:37.976Z,92.72
2022-12-31T13:08:24.521Z,92.03
2022-12-31T13:11:00.057Z,93.70
2022-12-31T13:13:46.854Z,93.13
2022-12-31T13:16:43.393Z,91.55
2022-12-31T13:19:43.037Z,90.33
2022-12-31T13:22:23.404Z,90.06
2022-12-31T13:24:58.960Z,90.97
2022-12-31T13:27:33.703Z,91.88
2022-12-31T13:30:02.680Z,89.52
2022-12-31T13:32:42.268Z,89.64
2022-12-31T13:35:44.456Z,91.13
2022-12-31T13:38:46.024Z,90.43
2022-12-31T13:41:41.691Z,90.02
2022-12-31T13:44:29.532Z,89.57
2022-12-31T13:47:17.566Z,88.64
2022-12-31T13:49:48.964Z,89.46
2022-12-31T13:52:52.935Z,89.15
2022-12-31T13:55:33.212Z,88.77
2022-12-31T13:58:22.624Z,88.52
2022-12-31T14:01:26.244Z,90.41
2022-12-31T14:04:16.930Z,89.19
2022-12-31T14:06:49.721Z,89.62
2022-12-31T14:09:22.422Z,88.17
2022-12-31T14:12:13.603Z,88.98
2022-12-31T14:14:58.709Z,89.21
2022-12-31T14:17:49.943Z,88.61
2022-12-31T14:20:46.756Z,89.02
2022-12-31T14:23:41.094Z,89.64
2022-12-31T14:26:34.090Z,88.85
2022-12-31T14:29:03.366Z,89.60
2022-12-31T14:32:02.171Z,90.13
2022-12-31T14:34:49.721Z,90.59
2022-12-31T14:37:39.717Z,91.64
2022-12-31T14:40:15.054Z,90.12
2022-12-31T14:43:00.844Z,91.13
2022-12-31T14:45:46.785Z,88.22
2022-12-31T14:48:39.590Z,89.90
2022-12-31T14:51:06.803Z,87.92
2022-12-31T14:53:33.492Z,89.13
2022-12-31T14:56:06.069Z,87.33
2022-12-31T14:58:35.051Z,89.03
2022-12-31T15:01:08.901Z,89.32
2022-12-31T15:03:44.964Z,88.31
2022-12-31T15:06:25.158Z,88.42
2022-12-31T15:09:10.184Z,87.90
2022-12-31T15:11:58.447Z,86.88
2022-12-31T15:14:38.127Z,87.87
2022-12-31T15:17:40.300Z,85.84
2022-12-31T15:20:21.828Z,84.72
2022-12-31T15:22:50.872Z,85.16
2022-12-31T15:25:33.869Z,83.80
2022-12-31T15:28:06.424Z,84.00
2022-12-31T15:30:55.972Z,84.25
2022-12-31T15:33:31.017Z,84.94
2022-12-31T15:36:10.375Z,83.62
2022-12-31T15:38:39.576Z,83.25
2022-12-31T15:41:24.406Z,83.09
2022-12-31T15:44:00.807Z,83.04
2022-12-31T15:46:33.316Z,82.33
2022-12-31T15:49:09.029Z,84.08
2022-12-31T15:51:59.311Z,84.73
2022-12-31T15:54:36.045Z,83.72
2022-12-31T15:57:09.045Z,84.96
2022-12-31T15:59:38.130Z,85.97
2022-12-31T16:02:05.202Z,84.79
2022-12-31T16:04:39.297Z,85.18
2022-12-31T16:07:05.725Z,86.67
2022-12-31T16:09:35.787Z,84.70
2022-12-31T16:12:12.233Z,84.69
2022-12-31T16:14:42.633Z,85.61
2022-12-31T16:17:30.642Z,84.16
2022-12-31T16:19:58.517Z,85.75
2022-12-31T16:22:26.371Z,86.18
2022-12-31T16:27:45.106Z,86.76
2022-12-31T16:30:28.413Z,84.11
2022-12-31T16:32:59.971Z,83.23
2022-12-31T16:35:32.443Z,84.82
2022-12-31T16:38:07.840Z,83.51
2022-12-31T16:40:34.535Z,83.01
2022-12-31T16:43:01.269Z,84.72
2022-12-31T16:45:30.991Z,84.93
2022-12-31T16:48:16.952Z,83.63
2022-12-31T16:50:55.900Z,84.54
2022-12-31T16:53:26.082Z,84.94
2022-12-31T16:56:00.077Z,82.62
2022-12-31T16:58:30.769Z,82.25
2022-12-31T17:01:12.376Z,83.47
2022-12-31T17:03:43.971Z,83.31
2022-12-31T17:06:17.088Z,82.73
2022-12-31T17:08:46.323Z,81.98
2022-12-31T17:11:35.454Z,81.18
2022-12-31T17:14:11.547Z,82.68
2022-12-31T17:17:03.329Z,80.52
2022-12-31T17:19:45.272Z,82.66
2022-12-31T17:22:32.923Z,82.97
2022-12-31T17:25:08.815Z,80.77
2022-12-31T17:27:36.771Z,81.58
2022-12-31T17:30:22.153Z,82.04
2022-12-31T17:32:50.091Z,79.48
2022-12-31T17:35:34.519Z,80.45
2022-12-31T17:38:22.512Z,81.79
2022-12-31T17:41:04.213Z,81.13
2022-12-31T17:43:35.231Z,81.85
2022-12-31T17:46:02.916Z,80.83
2022-12-31T17:48:29.487Z,82.58
2022-12-31T17:50:58.595Z,80.26
2022-12-31T17:53:24.979Z,80.70
2022-12-31T17:55:54.041Z,80.91
2022-12-31T17:58:29.652Z,82.20
2022-12-31T18:00:56.580Z,81.23
2022-12-31T18:03:23.012Z,81.05
2022-12-31T18:05:49.415Z,80.76
2022-12-31T18:08:15.789Z,81.37
2022-12-31T18:10:43.944Z,81.53
2022-12-31T18:13:23.156Z,82.27
2022-12-31T18:15:49.743Z,83.08
2022-12-31T18:18:26.032Z,80.92
2022-12-31T18:20:56.518Z,82.03
2022-12-31T18:23:48.825Z,81.62
2022-12-31T18:26:17.525Z,81.51
2022-12-31T18:28:44.359Z,81.71
2022-12-31T18:31:17.372Z,80.08
2022-12-31T18:33:44.163Z,80.12
2022-12-31T18:36:15.208Z,80.06
2022-12-31T18:38:42.089Z,79.07
2022-12-31T18:41:19.139Z,79.27
2022-12-31T18:43:45.757Z,80.45
2022-12-31T18:46:13.705Z,78.83
2022-12-31T18:48:42.888Z,76.53
2022-12-31T18:51:18.255Z,78.42
2022-12-31T18:53:45.111Z,76.22
2022-12-31T18:56:14.521Z,76.18
2022-12-31T18:58:41.631Z,77.53
2022-12-31T19:01:29.259Z,77.21
2022-12-31T19:04:01.474Z,78.03
2022-12-31T19:06:29.032Z,76.93
2022-12-31T19:08:55.887Z,76.92
2022-12-31T19:11:23.004Z,77.13
2022-12-31T19:13:49.852Z,77.66
2022-12-31T19:16:16.313Z,76.22
2022-12-31T19:18:42.718Z,78.63
2022-12-31T19:21:22.321Z,79.38
2022-12-31T19:23:49.980Z,79.42
2022-12-31T19:26:18.631Z,78.53
2022-12-31T19:28:45.810Z,80.77
2022-12-31T19:31:12.478Z,78.84
2022-12-31T19:33:39.191Z,78.79
2022-12-31T19:36:07.355Z,77.52
2022-12-31T19:38:34.032Z,78.13
2022-12-31T19:41:01.366Z,77.94
2022-12-31T19:43:27.779Z,78.48
2022-12-31T19:45:54.257Z,76.88
2022-12-31T19:48:28.751Z,78.37
2022-12-31T19:50:58.608Z,77.67
2022-12-31T19:53:26.787Z,79.28
2022-12-31T19:55:53.793Z,79.05
2022-12-31T19:58:24.661Z,76.69
2022-12-31T20:00:56.861Z,77.01
2022-12-31T20:03:27.634Z,80.49
2022-12-31T20:06:02.353Z,77.18
2022-12-31T20:08:28.753Z,78.46
2022-12-31T20:10:58.698Z,78.92
2022-12-31T20:13:26.589Z,79.67
2022-12-31T20:15:53.743Z,78.08
2022-12-31T20:18:21.166Z,76.83
2022-12-31T20:20:55.067Z,79.45
2022-12-31T20:23:22.056Z,78.04
2022-12-31T20:26:08.766Z,76.42
2022-12-31T20:28:36.482Z,76.46
2022-12-31T20:31:11.124Z,77.26
2022-12-31T20:33:37.614Z,77.50
2022-12-31T20:36:06.348Z,80.14
2022-12-31T20:38:32.912Z,79.43
2022-12-31T20:41:08.002Z,77.91
2022-12-31T20:43:35.676Z,78.40
2022-12-31T20:46:14.776Z,79.02
2022-12-31T20:48:42.481Z,79.39
2022-12-31T20:51:08.889Z,78.31
2022-12-31T20:53:35.270Z,77.81
2022-12-31T20:56:06.219Z,78.19
2022-12-31T20:58:32.898Z,77.64
2022-12-31T21:00:59.398Z,78.51
2022-12-31T21:04:02.807Z,79.95
2022-12-31T21:06:12.768Z,78.58
2022-12-31T21:08:39.430Z,78.84
2022-12-31T21:11:29.458Z,80.81
2022-12-31T21:13:57.295Z,79.85
2022-12-31T21:16:24.485Z,79.82
2022-12-31T21:18:50.976Z,78.31
2022-12-31T21:21:17.564Z,78.52
2022-12-31T21:23:43.947Z,78.68
2022-12-31T21:26:10.551Z,78.71
2022-12-31T21:28:36.972Z,79.81
2022-12-31T21:31:07.665Z,82.13
2022-12-31T21:33:34.492Z,80.68
2022-12-31T21:36:04.488Z,79.30
2022-12-31T21:38:31.478Z,79.11
2022-12-31T21:41:05.689Z,80.70
2022-12-31T21:43:32.075Z,79.60
2022-12-31T21:46:06.938Z,79.34
2022-12-31T21:48:33.832Z,81.34
2022-12-31T21:51:14.822Z,79.70
2022-12-31T21:53:41.286Z,80.23
2022-12-31T21:56:09.223Z,81.24
2022-12-31T21:58:38.024Z,82.47
2022-12-31T22:01:23.882Z,81.65
2022-12-31T22:03:50.595Z,82.65
2022-12-31T22:06:24.396Z,82.45
2022-12-31T22:08:53.477Z,80.00
2022-12-31T22:11:22.262Z,80.00
2022-12-31T22:13:49.335Z,80.42
2022-12-31T22:16:17.048Z,81.29
2022-12-31T22:18:44.212Z,81.72
2022-12-31T22:21:18.195Z,80.47
2022-12-31T22:23:47.397Z,80.68
2022-12-31T22:26:15.952Z,79.29
2022-12-31T22:28:44.296Z,78.69
2022-12-31T22:31:14.565Z,78.59
2022-12-31T22:33:41.559Z,79.10
2022-12-31T22:36:12.387Z,78.05
2022-12-31T22:38:38.905Z,78.74
2022-12-31T22:41:17.213Z,79.79
2022-12-31T22:43:47.198Z,77.50
2022-12-31T22:46:22.687Z,78.88
2022-12-31T22:48:50.950Z,78.06
2022-12-31T22:51:18.193Z,77.48
2022-12-31T22:53:44.690Z,76.83
2022-12-31T22:56:14.033Z,77.44
2022-12-31T22:58:40.824Z,76.90
2022-12-31T23:01:34.568Z,80.28
2022-12-31T23:04:01.124Z,78.88
2022-12-31T23:06:28.677Z,79.55
2022-12-31T23:09:13.916Z,79.23
2022-12-31T23:11:40.709Z,80.69
2022-12-31T23:14:26.980Z,79.35
2022-12-31T23:17:31.150Z,79.57
2022-12-31T23:20:16.615Z,80.81
2022-12-31T23:23:01.320Z,79.02
2022-12-31T23:25:27.889Z,81.00
2022-12-31T23:27:54.248Z,77.84
2022-12-31T23:30:20.620Z,78.49
2022-12-31T23:32:46.982Z,80.43
2022-12-31T23:35:13.903Z,79.51
2022-12-31T23:37:40.306Z,79.28
2022-12-31T23:40:07.394Z,81.40
2022-12-31T23:42:33.770Z,79.86
2022-12-31T23:45:00.143Z,79.58
2022-12-31T23:47:26.519Z,80.76
2022-12-31T23:49:52.919Z,79.83
2022-12-31T23:52:19.409Z,79.22
2022-12-31T23:54:45.782Z,80.00
2022-12-31T23:57:12.147Z,80.22
2022-12-31T23:59:38.499Z,81.76
